Time,TemperatureF,DewpointF,PressureIn,WindDirection,WindDirectionDegrees,WindSpeedMPH,WindSpeedGustMPH,Humidity,HourlyPrecipIn,Conditions,Clouds,dailyrainin,SolarRadiationWatts/m^2,SoftwareType,DateUTC
2013-09-12 00:01:00,52.0,43.0,-100.00,East,100,2.0,4.0,70,0.00,,,0.00,0.000000,,2013-09-12 06:01:00,
2013-09-12 00:12:00,52.0,43.0,-100.00,East,100,2.0,4.0,70,0.00,,,0.00,0.000000,,2013-09-12 06:12:00,
2013-09-12 00:21:00,52.0,43.0,-100.00,East,100,2.0,4.0,70,0.00,,,0.00,0.000000,,2013-09-12 06:21:00,
2013-09-12 00:22:00,52.0,43.0,-100.00,SW,223,1.0,4.0,70,0.00,,,0.00,0.000000,,2013-09-12 06:22:00,
2013-09-12 00:52:00,52.0,43.0,-100.00,SW,223,1.0,4.0,70,0.00,,,0.00,0.000000,,2013-09-12 06:52:00,
2013-09-12 01:02:00,52.0,43.0,-100.00,SW,223,1.0,4.0,70,0.00,,,0.00,0.000000,,2013-09-12 07:02:00,
2013-09-12 01:12:00,52.0,43.0,-100.00,SW,223,1.0,4.0,70,0.00,,,0.00,0.000000,,2013-09-12 07:12:00,
2013-09-12 01:22:00,51.0,44.0,-100.00,ENE,76,0.0,2.0,76,0.00,,,0.00,0.000000,,2013-09-12 07:22:00,
2013-09-12 01:52:00,51.0,44.0,-100.00,ENE,76,0.0,2.0,76,0.00,,,0.00,0.000000,,2013-09-12 07:52:00,
2013-09-12 02:02:00,51.0,44.0,-100.00,ENE,76,0.0,2.0,76,0.00,,,0.00,0.000000,,2013-09-12 08:02:00,
2013-09-12 02:11:00,51.0,44.0,-100.00,ENE,76,0.0,2.0,76,0.00,,,0.00,0.000000,,2013-09-12 08:11:00,
2013-09-12 02:52:00,50.0,44.0,-100.00,East,97,1.0,4.0,81,0.00,,,-99.99,0.000000,,2013-09-12 08:52:00,
2013-09-12 03:02:00,50.0,44.0,-100.00,East,97,1.0,4.0,81,0.00,,,-99.99,0.000000,,2013-09-12 09:02:00,
2013-09-12 03:12:00,50.0,44.0,-100.00,East,97,1.0,4.0,81,0.00,,,-99.99,0.000000,,2013-09-12 09:12:00,
2013-09-12 03:21:00,50.0,44.0,-100.00,East,97,1.0,4.0,81,0.00,,,-99.99,0.000000,,2013-09-12 09:21:00,
2013-09-12 03:22:00,48.0,43.0,-100.00,WNW,291,1.0,2.0,82,0.00,,,0.00,0.000000,,2013-09-12 09:22:00,
2013-09-12 03:53:00,48.0,43.0,-100.00,WNW,291,1.0,2.0,82,0.00,,,0.00,0.000000,,2013-09-12 09:53:00,
2013-09-12 04:03:00,48.0,43.0,-100.00,WNW,291,1.0,2.0,82,0.00,,,0.00,0.000000,,2013-09-12 10:03:00,
2013-09-12 04:12:00,48.0,43.0,-100.00,WNW,291,1.0,2.0,82,0.00,,,0.00,0.000000,,2013-09-12 10:12:00,
2013-09-12 04:22:00,49.0,44.0,-100.00,ESE,109,2.0,2.0,84,0.00,,,0.00,0.000000,,2013-09-12 10:22:00,
2013-09-12 04:53:00,49.0,44.0,-100.00,ESE,109,2.0,2.0,84,0.00,,,0.00,0.000000,,2013-09-12 10:53:00,
2013-09-12 05:03:00,49.0,44.0,-100.00,ESE,109,2.0,2.0,84,0.00,,,0.00,0.000000,,2013-09-12 11:03:00,
2013-09-12 05:11:00,49.0,44.0,-100.00,ESE,109,2.0,2.0,84,0.00,,,0.00,0.000000,,2013-09-12 11:11:00,
2013-09-12 05:22:00,48.0,44.0,-100.00,East,81,1.0,2.0,85,0.00,,,0.00,0.000000,,2013-09-12 11:22:00,
2013-09-12 05:52:00,48.0,44.0,-100.00,East,81,1.0,2.0,85,0.00,,,0.00,0.000000,,2013-09-12 11:52:00,
2013-09-12 06:01:00,48.0,44.0,-100.00,East,81,1.0,2.0,85,0.00,,,0.00,0.000000,,2013-09-12 12:01:00,
2013-09-12 06:12:00,48.0,44.0,-100.00,East,81,1.0,2.0,85,0.00,,,0.00,0.000000,,2013-09-12 12:12:00,
2013-09-12 06:22:00,48.0,44.0,-100.00,North,11,1.0,3.0,86,0.00,,,0.00,0.000000,,2013-09-12 12:22:00,
2013-09-12 06:52:00,48.0,44.0,-100.00,North,11,1.0,3.0,86,0.00,,,0.00,0.000000,,2013-09-12 12:52:00,
2013-09-12 07:02:00,48.0,44.0,-100.00,North,11,1.0,3.0,86,0.00,,,0.00,0.000000,,2013-09-12 13:02:00,
2013-09-12 07:11:00,48.0,44.0,-100.00,North,11,1.0,3.0,86,0.00,,,0.00,0.000000,,2013-09-12 13:11:00,
2013-09-12 07:22:00,46.0,44.0,-100.00,West,268,1.0,2.0,93,0.00,,,0.00,11.000000,,2013-09-12 13:22:00,
2013-09-12 07:52:00,46.0,44.0,-100.00,West,268,1.0,2.0,93,0.00,,,0.00,11.000000,,2013-09-12 13:52:00,
2013-09-12 08:02:00,46.0,44.0,-100.00,West,268,1.0,2.0,93,0.00,,,0.00,11.000000,,2013-09-12 14:02:00,
2013-09-12 08:11:00,46.0,44.0,-100.00,West,268,1.0,2.0,93,0.00,,,0.00,11.000000,,2013-09-12 14:11:00,
2013-09-12 08:22:00,54.0,46.0,-100.00,WNW,292,2.0,3.0,75,0.00,,,0.00,174.000000,,2013-09-12 14:22:00,
2013-09-12 08:52:00,54.0,46.0,-100.00,WNW,292,2.0,3.0,75,0.00,,,0.00,174.000000,,2013-09-12 14:52:00,
2013-09-12 09:02:00,54.0,46.0,-100.00,WNW,292,2.0,3.0,75,0.00,,,0.00,174.000000,,2013-09-12 15:02:00,
2013-09-12 09:11:00,54.0,46.0,-100.00,WNW,292,2.0,3.0,75,0.00,,,0.00,174.000000,,2013-09-12 15:11:00,
2013-09-12 09:22:00,55.0,47.0,-100.00,NNW,335,1.0,3.0,75,0.00,,,0.00,256.000000,,2013-09-12 15:22:00,
2013-09-12 09:54:00,55.0,47.0,-100.00,NNW,335,1.0,3.0,75,0.00,,,0.00,256.000000,,2013-09-12 15:54:00,
2013-09-12 10:03:00,55.0,47.0,-100.00,NNW,335,1.0,3.0,75,0.00,,,0.00,256.000000,,2013-09-12 16:03:00,
2013-09-12 10:13:00,55.0,47.0,-100.00,NNW,335,1.0,3.0,75,0.00,,,0.00,256.000000,,2013-09-12 16:13:00,
2013-09-12 10:22:00,62.0,47.0,-100.00,WNW,286,3.0,4.0,58,0.00,,,0.00,468.000000,,2013-09-12 16:22:00,
2013-09-12 10:53:00,62.0,47.0,-100.00,WNW,286,3.0,4.0,58,0.00,,,0.00,468.000000,,2013-09-12 16:53:00,
2013-09-12 11:03:00,62.0,47.0,-100.00,WNW,286,3.0,4.0,58,0.00,,,0.00,468.000000,,2013-09-12 17:03:00,
2013-09-12 11:12:00,62.0,47.0,-100.00,WNW,286,3.0,4.0,58,0.00,,,0.00,468.000000,,2013-09-12 17:12:00,
2013-09-12 12:22:00,65.0,45.0,-100.00,ENE,74,3.0,9.0,48,-99.99,,,0.00,764.000000,,2013-09-12 18:22:00,
2013-09-12 12:52:00,65.0,45.0,-100.00,ENE,74,3.0,9.0,48,-99.99,,,0.00,764.000000,,2013-09-12 18:52:00,
2013-09-12 13:02:00,65.0,45.0,-100.00,ENE,74,3.0,9.0,48,-99.99,,,0.00,764.000000,,2013-09-12 19:02:00,
2013-09-12 13:12:00,65.0,45.0,-100.00,ENE,74,3.0,9.0,48,-99.99,,,0.00,764.000000,,2013-09-12 19:12:00,
2013-09-12 13:22:00,66.0,43.0,-100.00,SE,124,4.0,6.0,44,0.00,,,0.00,253.000000,,2013-09-12 19:22:00,
2013-09-12 13:52:00,66.0,43.0,-100.00,SE,124,4.0,6.0,44,0.00,,,0.00,253.000000,,2013-09-12 19:52:00,
2013-09-12 14:02:00,66.0,43.0,-100.00,SE,124,4.0,6.0,44,0.00,,,0.00,253.000000,,2013-09-12 20:02:00,
2013-09-12 14:12:00,66.0,43.0,-100.00,SE,124,4.0,6.0,44,0.00,,,0.00,253.000000,,2013-09-12 20:12:00,
2013-09-12 14:22:00,64.0,51.0,-100.00,SSW,208,5.0,10.0,63,0.00,,,0.00,255.000000,,2013-09-12 20:22:00,
2013-09-12 14:52:00,64.0,51.0,-100.00,SSW,208,5.0,10.0,63,0.00,,,0.00,255.000000,,2013-09-12 20:52:00,
2013-09-12 15:02:00,64.0,51.0,-100.00,SSW,208,5.0,10.0,63,0.00,,,0.00,255.000000,,2013-09-12 21:02:00,
2013-09-12 15:11:00,64.0,51.0,-100.00,SSW,208,5.0,10.0,63,0.00,,,0.00,255.000000,,2013-09-12 21:11:00,
2013-09-12 15:22:00,69.0,44.0,-100.00,ENE,67,4.0,9.0,40,0.00,,,0.00,517.000000,,2013-09-12 21:22:00,
2013-09-12 15:54:00,69.0,44.0,-100.00,ENE,67,4.0,9.0,40,0.00,,,0.00,517.000000,,2013-09-12 21:54:00,
2013-09-12 16:04:00,69.0,44.0,-100.00,ENE,67,4.0,9.0,40,0.00,,,0.00,517.000000,,2013-09-12 22:04:00,
2013-09-12 16:13:00,69.0,44.0,-100.00,ENE,67,4.0,9.0,40,0.00,,,0.00,517.000000,,2013-09-12 22:13:00,
2013-09-12 16:22:00,66.0,44.0,-100.00,ENE,77,5.0,9.0,45,0.00,,,0.00,375.000000,,2013-09-12 22:22:00,
2013-09-12 16:54:00,66.0,44.0,-100.00,ENE,77,5.0,9.0,45,0.00,,,0.00,375.000000,,2013-09-12 22:54:00,
2013-09-12 17:04:00,66.0,44.0,-100.00,ENE,77,5.0,9.0,45,0.00,,,0.00,375.000000,,2013-09-12 23:04:00,
2013-09-12 17:12:00,66.0,44.0,-100.00,ENE,77,5.0,9.0,45,0.00,,,0.00,375.000000,,2013-09-12 23:12:00,
2013-09-12 17:22:00,61.0,43.0,-100.00,ESE,102,4.0,13.0,52,0.00,,,0.00,110.000000,,2013-09-12 23:22:00,
2013-09-12 17:53:00,61.0,43.0,-100.00,ESE,102,4.0,13.0,52,0.00,,,0.00,110.000000,,2013-09-12 23:53:00,
2013-09-12 18:01:00,61.0,43.0,-100.00,ESE,102,4.0,13.0,52,0.00,,,0.00,110.000000,,2013-09-13 00:01:00,
2013-09-12 18:11:00,61.0,43.0,-100.00,ESE,102,4.0,13.0,52,0.00,,,0.00,110.000000,,2013-09-13 00:11:00,
2013-09-12 18:22:00,52.0,49.0,-100.00,ESE,122,5.0,9.0,91,0.08,,,0.08,10.000000,,2013-09-13 00:22:00,
2013-09-12 18:52:00,52.0,49.0,-100.00,ESE,122,5.0,9.0,91,0.08,,,0.08,10.000000,,2013-09-13 00:52:00,
2013-09-12 19:01:00,52.0,49.0,-100.00,ESE,122,5.0,9.0,91,0.08,,,0.08,10.000000,,2013-09-13 01:01:00,
2013-09-12 19:11:00,52.0,49.0,-100.00,ESE,122,5.0,9.0,91,0.08,,,0.08,10.000000,,2013-09-13 01:11:00,
2013-09-12 19:22:00,50.0,49.0,-100.00,NNE,27,2.0,7.0,95,0.07,,,0.15,2.000000,,2013-09-13 01:22:00,
2013-09-12 19:53:00,50.0,49.0,-100.00,NNE,27,2.0,7.0,95,0.07,,,0.15,2.000000,,2013-09-13 01:53:00,
2013-09-12 20:02:00,50.0,49.0,-100.00,NNE,27,2.0,7.0,95,0.07,,,0.15,2.000000,,2013-09-13 02:02:00,
2013-09-12 20:12:00,50.0,49.0,-100.00,NNE,27,2.0,7.0,95,0.07,,,0.15,2.000000,,2013-09-13 02:12:00,
2013-09-12 20:22:00,50.0,50.0,-100.00,SSE,147,1.0,4.0,99,0.01,,,0.16,0.000000,,2013-09-13 02:22:00,
2013-09-12 20:53:00,50.0,50.0,-100.00,SSE,147,1.0,4.0,99,0.01,,,0.16,0.000000,,2013-09-13 02:53:00,
2013-09-12 21:02:00,50.0,50.0,-100.00,SSE,147,1.0,4.0,99,0.01,,,0.16,0.000000,,2013-09-13 03:02:00,
2013-09-12 21:12:00,50.0,50.0,-100.00,SSE,147,1.0,4.0,99,0.01,,,0.16,0.000000,,2013-09-13 03:12:00,
2013-09-12 21:22:00,51.0,51.0,-100.00,East,82,1.0,3.0,100,0.00,,,0.16,0.000000,,2013-09-13 03:22:00,
2013-09-12 21:55:00,51.0,51.0,-100.00,East,82,1.0,3.0,100,0.00,,,0.16,0.000000,,2013-09-13 03:55:00,
2013-09-12 22:04:00,51.0,51.0,-100.00,East,82,1.0,3.0,100,0.00,,,0.16,0.000000,,2013-09-13 04:04:00,
2013-09-12 22:14:00,51.0,51.0,-100.00,East,82,1.0,3.0,100,0.00,,,0.16,0.000000,,2013-09-13 04:14:00,
2013-09-12 22:22:00,50.0,-99.9,-100.00,North,354,1.0,2.0,-999,0.01,,,0.17,0.000000,,2013-09-13 04:22:00,
2013-09-12 22:54:00,50.0,-99.9,-100.00,North,354,1.0,2.0,-999,0.01,,,0.17,0.000000,,2013-09-13 04:54:00,
2013-09-12 23:03:00,50.0,-99.9,-100.00,North,354,1.0,2.0,-999,0.01,,,0.17,0.000000,,2013-09-13 05:03:00,
2013-09-12 23:13:00,50.0,-99.9,-100.00,North,354,1.0,2.0,-999,0.01,,,0.17,0.000000,,2013-09-13 05:13:00,
2013-09-12 23:22:00,50.0,-99.9,-100.00,WNW,301,2.0,2.0,-999,0.00,,,0.17,0.000000,,2013-09-13 05:22:00,
2013-09-12 23:54:00,50.0,-99.9,-100.00,WNW,301,2.0,2.0,-999,0.00,,,0.17,0.000000,,2013-09-13 05:54:00,